sensor_id;sensor_type;location;lat;lon;timestamp;temperature;humidity
43530;DHT22;55654;50.966;6.878;2023-03-14T01:10:43;10.30;99.90
43530;DHT22;55654;50.966;6.878;2023-03-14T01:20:30;9.50;99.90
43530;DHT22;55654;50.966;6.878;2023-03-14T01:22:56;9.50;99.90
43530;DHT22;55654;50.966;6.878;2023-03-14T01:25:22;9.40;99.90
43530;DHT22;55654;50.966;6.878;2023-03-14T01:27:47;9.30;99.90
43530;DHT22;55654;50.966;6.878;2023-03-14T01:30:13;9.30;99.90
43530;DHT22;55654;50.966;6.878;2023-03-14T01:32:39;9.30;99.90
43530;DHT22;55654;50.966;6.878;2023-03-14T01:35:06;9.20;99.90
43530;DHT22;55654;50.966;6.878;2023-03-14T01:37:31;9.20;99.90
43530;DHT22;55654;50.966;6.878;2023-03-14T01:39:59;9.20;99.90
43530;DHT22;55654;50.966;6.878;2023-03-14T01:42:25;9.20;99.90
43530;DHT22;55654;50.966;6.878;2023-03-14T01:44:54;9.20;99.90
43530;DHT22;55654;50.966;6.878;2023-03-14T01:47:21;9.20;99.90
43530;DHT22;55654;50.966;6.878;2023-03-14T01:50:07;9.20;99.90
43530;DHT22;55654;50.966;6.878;2023-03-14T01:55:12;9.40;99.90
43530;DHT22;55654;50.966;6.878;2023-03-14T01:57:53;9.40;99.90
43530;DHT22;55654;50.966;6.878;2023-03-14T02:00:26;9.40;99.90
43530;DHT22;55654;50.966;6.878;2023-03-14T02:02:54;9.40;99.90
43530;DHT22;55654;50.966;6.878;2023-03-14T02:05:24;9.30;99.90
43530;DHT22;55654;50.966;6.878;2023-03-14T02:07:53;9.40;99.90
43530;DHT22;55654;50.966;6.878;2023-03-14T02:10:21;9.30;99.90
43530;DHT22;55654;50.966;6.878;2023-03-14T02:12:51;9.20;99.90
43530;DHT22;55654;50.966;6.878;2023-03-14T02:15:18;9.20;99.90
43530;DHT22;55654;50.966;6.878;2023-03-14T02:17:47;9.10;99.90
43530;DHT22;55654;50.966;6.878;2023-03-14T02:28:22;9.10;99.90
43530;DHT22;55654;50.966;6.878;2023-03-14T02:30:47;9.00;99.90
43530;DHT22;55654;50.966;6.878;2023-03-14T02:33:17;9.10;99.90
43530;DHT22;55654;50.966;6.878;2023-03-14T02:35:58;9.00;99.90
43530;DHT22;55654;50.966;6.878;2023-03-14T02:40:54;9.10;99.90
43530;DHT22;55654;50.966;6.878;2023-03-14T02:43:20;9.10;99.90
43530;DHT22;55654;50.966;6.878;2023-03-14T02:45:50;9.10;99.90
43530;DHT22;55654;50.966;6.878;2023-03-14T02:48:18;9.00;99.90
43530;DHT22;55654;50.966;6.878;2023-03-14T02:50:48;8.90;99.90
43530;DHT22;55654;50.966;6.878;2023-03-14T02:53:21;8.90;99.90
43530;DHT22;55654;50.966;6.878;2023-03-14T02:55:52;8.80;99.90
43530;DHT22;55654;50.966;6.878;2023-03-14T02:58:19;8.70;99.90
43530;DHT22;55654;50.966;6.878;2023-03-14T03:00:45;8.60;99.90
43530;DHT22;55654;50.966;6.878;2023-03-14T03:03:14;8.70;99.90
43530;DHT22;55654;50.966;6.878;2023-03-14T03:05:42;8.60;99.90
43530;DHT22;55654;50.966;6.878;2023-03-14T03:08:09;8.70;99.90
43530;DHT22;55654;50.966;6.878;2023-03-14T03:10:35;8.70;99.90
43530;DHT22;55654;50.966;6.878;2023-03-14T03:13:01;8.70;99.90
43530;DHT22;55654;50.966;6.878;2023-03-14T03:15:30;8.70;99.90
43530;DHT22;55654;50.966;6.878;2023-03-14T03:17:56;8.70;99.90
43530;DHT22;55654;50.966;6.878;2023-03-14T03:20:23;8.80;99.90
43530;DHT22;55654;50.966;6.878;2023-03-14T03:22:49;8.90;99.90
43530;DHT22;55654;50.966;6.878;2023-03-14T03:25:15;8.90;99.90
43530;DHT22;55654;50.966;6.878;2023-03-14T03:27:43;8.80;99.90
43530;DHT22;55654;50.966;6.878;2023-03-14T03:30:12;8.80;99.90
43530;DHT22;55654;50.966;6.878;2023-03-14T03:32:37;8.90;99.90
43530;DHT22;55654;50.966;6.878;2023-03-14T03:35:04;9.00;99.90
43530;DHT22;55654;50.966;6.878;2023-03-14T03:37:31;9.20;99.90
43530;DHT22;55654;50.966;6.878;2023-03-14T03:39:56;9.30;99.90
43530;DHT22;55654;50.966;6.878;2023-03-14T03:42:26;9.40;99.90
43530;DHT22;55654;50.966;6.878;2023-03-14T03:44:52;9.40;99.90
43530;DHT22;55654;50.966;6.878;2023-03-14T03:47:18;9.50;99.90
43530;DHT22;55654;50.966;6.878;2023-03-14T03:49:46;9.50;99.90
43530;DHT22;55654;50.966;6.878;2023-03-14T03:52:14;9.50;99.90
43530;DHT22;55654;50.966;6.878;2023-03-14T03:54:42;9.60;99.90
43530;DHT22;55654;50.966;6.878;2023-03-14T03:57:07;9.60;99.90
43530;DHT22;55654;50.966;6.878;2023-03-14T03:59:33;9.60;99.90
43530;DHT22;55654;50.966;6.878;2023-03-14T04:01:59;9.70;99.90
43530;DHT22;55654;50.966;6.878;2023-03-14T04:04:24;9.80;99.90
43530;DHT22;55654;50.966;6.878;2023-03-14T04:06:52;9.80;99.90
43530;DHT22;55654;50.966;6.878;2023-03-14T04:09:18;9.80;99.90
43530;DHT22;55654;50.966;6.878;2023-03-14T04:11:44;9.80;99.90
43530;DHT22;55654;50.966;6.878;2023-03-14T04:14:09;9.80;99.90
43530;DHT22;55654;50.966;6.878;2023-03-14T04:16:37;9.80;99.90
43530;DHT22;55654;50.966;6.878;2023-03-14T04:19:03;9.70;99.90
43530;DHT22;55654;50.966;6.878;2023-03-14T04:21:31;9.60;99.90
43530;DHT22;55654;50.966;6.878;2023-03-14T04:23:56;9.50;99.90
43530;DHT22;55654;50.966;6.878;2023-03-14T04:26:24;9.50;99.90
43530;DHT22;55654;50.966;6.878;2023-03-14T04:28:50;9.50;99.90
43530;DHT22;55654;50.966;6.878;2023-03-14T04:31:20;9.50;99.90
43530;DHT22;55654;50.966;6.878;2023-03-14T04:33:46;9.50;99.90
43530;DHT22;55654;50.966;6.878;2023-03-14T04:36:12;9.40;99.90
43530;DHT22;55654;50.966;6.878;2023-03-14T04:38:37;9.40;99.90
43530;DHT22;55654;50.966;6.878;2023-03-14T04:41:03;9.40;99.90
43530;DHT22;55654;50.966;6.878;2023-03-14T04:43:31;9.50;99.90
43530;DHT22;55654;50.966;6.878;2023-03-14T04:45:58;9.50;99.90
43530;DHT22;55654;50.966;6.878;2023-03-14T04:48:24;9.40;99.90
43530;DHT22;55654;50.966;6.878;2023-03-14T04:50:50;9.50;99.90
43530;DHT22;55654;50.966;6.878;2023-03-14T04:53:17;9.50;99.90
43530;DHT22;55654;50.966;6.878;2023-03-14T04:55:47;9.60;99.90
43530;DHT22;55654;50.966;6.878;2023-03-14T04:58:18;9.50;99.90
43530;DHT22;55654;50.966;6.878;2023-03-14T05:00:44;9.50;99.90
43530;DHT22;55654;50.966;6.878;2023-03-14T05:03:09;9.50;99.90
43530;DHT22;55654;50.966;6.878;2023-03-14T05:05:37;9.50;99.90
43530;DHT22;55654;50.966;6.878;2023-03-14T05:08:05;9.40;99.90
43530;DHT22;55654;50.966;6.878;2023-03-14T05:10:30;9.40;99.90
43530;DHT22;55654;50.966;6.878;2023-03-14T05:12:56;9.40;99.90
43530;DHT22;55654;50.966;6.878;2023-03-14T05:15:22;9.50;99.90
43530;DHT22;55654;50.966;6.878;2023-03-14T05:17:47;9.50;99.90
43530;DHT22;55654;50.966;6.878;2023-03-14T05:20:14;9.50;99.90
43530;DHT22;55654;50.966;6.878;2023-03-14T05:22:42;9.50;99.90
43530;DHT22;55654;50.966;6.878;2023-03-14T05:25:09;9.60;99.90
43530;DHT22;55654;50.966;6.878;2023-03-14T05:27:35;9.60;99.90
43530;DHT22;55654;50.966;6.878;2023-03-14T05:30:04;9.60;99.90
43530;DHT22;55654;50.966;6.878;2023-03-14T05:32:30;9.60;99.90
43530;DHT22;55654;50.966;6.878;2023-03-14T05:34:56;9.70;99.90
43530;DHT22;55654;50.966;6.878;2023-03-14T05:37:25;9.70;99.90
43530;DHT22;55654;50.966;6.878;2023-03-14T05:39:51;9.60;99.90
43530;DHT22;55654;50.966;6.878;2023-03-14T05:42:16;9.60;99.90
43530;DHT22;55654;50.966;6.878;2023-03-14T05:44:44;9.70;99.90
43530;DHT22;55654;50.966;6.878;2023-03-14T05:47:10;9.70;99.90
43530;DHT22;55654;50.966;6.878;2023-03-14T05:49:35;9.60;99.90
43530;DHT22;55654;50.966;6.878;2023-03-14T05:52:03;9.60;99.90
43530;DHT22;55654;50.966;6.878;2023-03-14T05:54:31;9.60;99.90
43530;DHT22;55654;50.966;6.878;2023-03-14T05:56:56;9.70;99.90
43530;DHT22;55654;50.966;6.878;2023-03-14T05:59:22;9.60;99.90
43530;DHT22;55654;50.966;6.878;2023-03-14T06:01:47;9.70;99.90
43530;DHT22;55654;50.966;6.878;2023-03-14T06:04:13;9.80;99.90
43530;DHT22;55654;50.966;6.878;2023-03-14T06:06:39;9.70;99.90
43530;DHT22;55654;50.966;6.878;2023-03-14T06:09:04;9.60;99.90
43530;DHT22;55654;50.966;6.878;2023-03-14T06:11:34;9.50;99.90
43530;DHT22;55654;50.966;6.878;2023-03-14T06:14:00;9.50;99.90
43530;DHT22;55654;50.966;6.878;2023-03-14T06:16:25;9.40;99.90
43530;DHT22;55654;50.966;6.878;2023-03-14T06:18:51;9.40;99.90
43530;DHT22;55654;50.966;6.878;2023-03-14T06:21:18;9.40;99.90
43530;DHT22;55654;50.966;6.878;2023-03-14T06:23:45;9.40;99.90
43530;DHT22;55654;50.966;6.878;2023-03-14T06:26:10;9.40;99.90
43530;DHT22;55654;50.966;6.878;2023-03-14T06:28:37;9.40;99.90
43530;DHT22;55654;50.966;6.878;2023-03-14T06:31:03;9.50;99.90
43530;DHT22;55654;50.966;6.878;2023-03-14T06:33:31;9.50;99.90
43530;DHT22;55654;50.966;6.878;2023-03-14T06:35:57;9.60;99.90
43530;DHT22;55654;50.966;6.878;2023-03-14T06:38:22;9.60;99.90
43530;DHT22;55654;50.966;6.878;2023-03-14T06:40:48;9.60;99.90
43530;DHT22;55654;50.966;6.878;2023-03-14T06:43:13;9.70;99.90
43530;DHT22;55654;50.966;6.878;2023-03-14T06:45:39;9.70;99.90
43530;DHT22;55654;50.966;6.878;2023-03-14T06:48:05;9.80;99.90
43530;DHT22;55654;50.966;6.878;2023-03-14T06:50:30;9.90;99.90
43530;DHT22;55654;50.966;6.878;2023-03-14T06:52:56;10.10;99.90
43530;DHT22;55654;50.966;6.878;2023-03-14T06:55:21;10.20;99.90
43530;DHT22;55654;50.966;6.878;2023-03-14T06:57:47;10.20;99.90
43530;DHT22;55654;50.966;6.878;2023-03-14T07:00:15;10.20;99.90
43530;DHT22;55654;50.966;6.878;2023-03-14T07:02:41;10.20;99.90
43530;DHT22;55654;50.966;6.878;2023-03-14T07:05:07;10.30;99.90
43530;DHT22;55654;50.966;6.878;2023-03-14T07:07:33;10.30;99.90
43530;DHT22;55654;50.966;6.878;2023-03-14T07:10:03;10.30;99.90
43530;DHT22;55654;50.966;6.878;2023-03-14T07:12:28;10.30;99.90
43530;DHT22;55654;50.966;6.878;2023-03-14T07:14:54;10.30;99.90
43530;DHT22;55654;50.966;6.878;2023-03-14T07:17:19;10.30;99.90
43530;DHT22;55654;50.966;6.878;2023-03-14T07:19:45;10.30;99.90
43530;DHT22;55654;50.966;6.878;2023-03-14T07:22:13;10.30;99.90
43530;DHT22;55654;50.966;6.878;2023-03-14T07:24:40;10.40;99.90
43530;DHT22;55654;50.966;6.878;2023-03-14T07:27:06;10.50;99.90
43530;DHT22;55654;50.966;6.878;2023-03-14T07:29:31;10.60;99.90
43530;DHT22;55654;50.966;6.878;2023-03-14T07:31:57;10.80;99.90
43530;DHT22;55654;50.966;6.878;2023-03-14T07:34:23;11.00;99.90
43530;DHT22;55654;50.966;6.878;2023-03-14T07:36:48;11.00;99.90
43530;DHT22;55654;50.966;6.878;2023-03-14T07:39:14;11.00;99.90
43530;DHT22;55654;50.966;6.878;2023-03-14T07:41:42;11.00;99.90
43530;DHT22;55654;50.966;6.878;2023-03-14T07:44:07;11.00;99.90
43530;DHT22;55654;50.966;6.878;2023-03-14T07:46:33;11.00;99.90
43530;DHT22;55654;50.966;6.878;2023-03-14T07:49:01;11.00;99.90
43530;DHT22;55654;50.966;6.878;2023-03-14T07:51:26;11.10;99.90
43530;DHT22;55654;50.966;6.878;2023-03-14T07:53:54;11.20;99.90
43530;DHT22;55654;50.966;6.878;2023-03-14T07:56:20;11.30;99.90
43530;DHT22;55654;50.966;6.878;2023-03-14T07:58:48;11.30;99.90
43530;DHT22;55654;50.966;6.878;2023-03-14T08:01:16;11.40;99.90
43530;DHT22;55654;50.966;6.878;2023-03-14T08:03:44;11.20;99.90
43530;DHT22;55654;50.966;6.878;2023-03-14T08:06:09;11.20;99.90
43530;DHT22;55654;50.966;6.878;2023-03-14T08:08:35;11.20;99.90
43530;DHT22;55654;50.966;6.878;2023-03-14T08:11:05;11.20;99.90
43530;DHT22;55654;50.966;6.878;2023-03-14T08:13:31;11.30;99.90
43530;DHT22;55654;50.966;6.878;2023-03-14T08:15:56;11.40;99.90
43530;DHT22;55654;50.966;6.878;2023-03-14T08:18:24;11.40;99.90
43530;DHT22;55654;50.966;6.878;2023-03-14T08:20:50;11.50;99.90
43530;DHT22;55654;50.966;6.878;2023-03-14T08:23:15;11.50;99.90
43530;DHT22;55654;50.966;6.878;2023-03-14T08:25:41;11.70;99.90
43530;DHT22;55654;50.966;6.878;2023-03-14T08:28:11;11.80;99.90
43530;DHT22;55654;50.966;6.878;2023-03-14T08:30:39;11.80;99.90
43530;DHT22;55654;50.966;6.878;2023-03-14T08:33:05;11.80;99.90
43530;DHT22;55654;50.966;6.878;2023-03-14T08:35:34;11.80;99.90
43530;DHT22;55654;50.966;6.878;2023-03-14T09:38:58;9.30;99.90
43530;DHT22;55654;50.966;6.878;2023-03-14T09:41:32;9.20;99.90
43530;DHT22;55654;50.966;6.878;2023-03-14T10:09:23;8.30;99.90
43530;DHT22;55654;50.966;6.878;2023-03-14T10:16:54;8.10;99.90
43530;DHT22;55654;50.966;6.878;2023-03-14T10:19:20;8.10;99.90
43530;DHT22;55654;50.966;6.878;2023-03-14T10:21:53;7.90;99.90
43530;DHT22;55654;50.966;6.878;2023-03-14T10:24:26;7.90;99.90
43530;DHT22;55654;50.966;6.878;2023-03-14T10:26:52;7.90;99.90
43530;DHT22;55654;50.966;6.878;2023-03-14T10:29:21;7.90;99.90
43530;DHT22;55654;50.966;6.878;2023-03-14T10:44:23;7.80;99.90
43530;DHT22;55654;50.966;6.878;2023-03-14T10:57:00;8.00;99.90
43530;DHT22;55654;50.966;6.878;2023-03-14T11:07:34;8.10;99.90
43530;DHT22;55654;50.966;6.878;2023-03-14T12:24:47;7.00;99.90
43530;DHT22;55654;50.966;6.878;2023-03-14T12:30:18;7.00;99.90
43530;DHT22;55654;50.966;6.878;2023-03-14T12:33:20;7.00;99.90
43530;DHT22;55654;50.966;6.878;2023-03-14T12:51:17;6.80;99.90
43530;DHT22;55654;50.966;6.878;2023-03-14T12:59:36;6.50;99.90
43530;DHT22;55654;50.966;6.878;2023-03-14T13:02:24;6.50;99.90
43530;DHT22;55654;50.966;6.878;2023-03-14T13:15:26;6.60;99.90
43530;DHT22;55654;50.966;6.878;2023-03-14T13:17:54;6.60;99.90
43530;DHT22;55654;50.966;6.878;2023-03-14T13:22:53;6.70;99.90
43530;DHT22;55654;50.966;6.878;2023-03-14T13:25:21;6.80;99.90
43530;DHT22;55654;50.966;6.878;2023-03-14T13:27:51;6.80;99.90
43530;DHT22;55654;50.966;6.878;2023-03-14T13:30:30;6.90;99.90
43530;DHT22;55654;50.966;6.878;2023-03-14T13:33:04;7.00;99.90
43530;DHT22;55654;50.966;6.878;2023-03-14T13:35:37;6.90;99.90
43530;DHT22;55654;50.966;6.878;2023-03-14T13:40:34;6.50;99.90
43530;DHT22;55654;50.966;6.878;2023-03-14T13:43:10;6.20;99.90
43530;DHT22;55654;50.966;6.878;2023-03-14T13:50:56;6.30;99.90
43530;DHT22;55654;50.966;6.878;2023-03-14T13:55:51;6.30;99.90
43530;DHT22;55654;50.966;6.878;2023-03-14T14:05:46;6.70;99.90
43530;DHT22;55654;50.966;6.878;2023-03-14T14:08:12;6.80;99.90
43530;DHT22;55654;50.966;6.878;2023-03-14T14:10:38;7.00;99.90
